FA44 weather

Willis Gliderport
Boynton Beach, Florida, United States

Public forecast

Using degrees Fahrenheit for public forecast. Weather courtesy of forecast.io.

METAR (pilot weather report)

Closest report is Palm Beach International Airport, 10.3 nm (19.1 km) NE. Retrieved 2019/06/20 19:53 UTC (37 minutes ago):

KPBI 201953Z 13013KT 10SM SCT030 SCT042 SCT060 32/24 A3002 RMK AO2 SLP165 T03170239

TAF (pilot weather forecast)

Closest forecast is Palm Beach International Airport, 10.3 nm (19.1 km) NE. Retrieved 2019/06/20 18:30 UTC (2 hours ago):

TAF KPBI 201726Z 2018/2118 21009KT P6SM SCT035 FM210100 VRB04KT P6SM FEW025 FM211300 20009KT P6SM SCT035